sensor_id;sensor_type;location;lat;lon;timestamp;temperature;humidity
23160;DHT22;11748;50.844;4.396;2024-03-02T00:01:40;8.30;99.90
23160;DHT22;11748;50.844;4.396;2024-03-02T00:04:07;8.20;99.90
23160;DHT22;11748;50.844;4.396;2024-03-02T00:06:34;8.10;99.90
23160;DHT22;11748;50.844;4.396;2024-03-02T00:09:00;8.20;99.90
23160;DHT22;11748;50.844;4.396;2024-03-02T00:11:26;8.20;99.90
23160;DHT22;11748;50.844;4.396;2024-03-02T00:13:58;8.20;99.90
23160;DHT22;11748;50.844;4.396;2024-03-02T00:16:31;8.20;99.90
23160;DHT22;11748;50.844;4.396;2024-03-02T00:19:04;8.10;99.90
23160;DHT22;11748;50.844;4.396;2024-03-02T00:21:31;8.10;99.90
23160;DHT22;11748;50.844;4.396;2024-03-02T00:24:00;8.10;99.90
23160;DHT22;11748;50.844;4.396;2024-03-02T00:26:30;8.10;99.90
23160;DHT22;11748;50.844;4.396;2024-03-02T00:28:57;8.10;99.90
23160;DHT22;11748;50.844;4.396;2024-03-02T00:31:27;8.10;99.90
23160;DHT22;11748;50.844;4.396;2024-03-02T00:33:54;8.20;99.90
23160;DHT22;11748;50.844;4.396;2024-03-02T00:36:27;8.20;99.90
23160;DHT22;11748;50.844;4.396;2024-03-02T00:38:54;8.20;99.90
23160;DHT22;11748;50.844;4.396;2024-03-02T00:41:31;8.20;99.90
23160;DHT22;11748;50.844;4.396;2024-03-02T00:43:59;8.20;99.90
23160;DHT22;11748;50.844;4.396;2024-03-02T00:46:39;8.30;99.90
23160;DHT22;11748;50.844;4.396;2024-03-02T00:49:22;8.30;99.90
23160;DHT22;11748;50.844;4.396;2024-03-02T00:51:52;8.30;99.90
23160;DHT22;11748;50.844;4.396;2024-03-02T00:54:25;8.40;99.90
23160;DHT22;11748;50.844;4.396;2024-03-02T00:56:52;8.40;99.90
23160;DHT22;11748;50.844;4.396;2024-03-02T00:59:36;8.30;99.90
23160;DHT22;11748;50.844;4.396;2024-03-02T01:02:02;8.30;99.90
23160;DHT22;11748;50.844;4.396;2024-03-02T01:04:28;8.30;99.90
23160;DHT22;11748;50.844;4.396;2024-03-02T01:06:53;8.30;99.90
23160;DHT22;11748;50.844;4.396;2024-03-02T01:09:19;8.30;99.90
23160;DHT22;11748;50.844;4.396;2024-03-02T01:11:45;8.30;99.90
23160;DHT22;11748;50.844;4.396;2024-03-02T01:14:10;8.30;99.90
23160;DHT22;11748;50.844;4.396;2024-03-02T01:16:36;8.40;99.90
23160;DHT22;11748;50.844;4.396;2024-03-02T01:19:01;8.40;99.90
23160;DHT22;11748;50.844;4.396;2024-03-02T01:21:27;8.40;99.90
23160;DHT22;11748;50.844;4.396;2024-03-02T01:23:53;8.50;99.90
23160;DHT22;11748;50.844;4.396;2024-03-02T01:26:18;8.50;99.90
23160;DHT22;11748;50.844;4.396;2024-03-02T01:28:45;8.40;99.90
23160;DHT22;11748;50.844;4.396;2024-03-02T01:31:12;8.40;99.90
23160;DHT22;11748;50.844;4.396;2024-03-02T01:33:40;8.40;99.90
23160;DHT22;11748;50.844;4.396;2024-03-02T01:36:06;8.30;99.90
23160;DHT22;11748;50.844;4.396;2024-03-02T01:38:33;8.40;99.90
23160;DHT22;11748;50.844;4.396;2024-03-02T01:41:00;8.50;99.90
23160;DHT22;11748;50.844;4.396;2024-03-02T01:43:29;8.50;99.90
23160;DHT22;11748;50.844;4.396;2024-03-02T01:45:56;8.50;99.90
23160;DHT22;11748;50.844;4.396;2024-03-02T01:48:25;8.30;99.90
23160;DHT22;11748;50.844;4.396;2024-03-02T01:50:56;8.40;99.90
23160;DHT22;11748;50.844;4.396;2024-03-02T01:53:23;8.50;99.90
23160;DHT22;11748;50.844;4.396;2024-03-02T01:55:50;8.50;99.90
23160;DHT22;11748;50.844;4.396;2024-03-02T01:58:16;8.50;99.90
23160;DHT22;11748;50.844;4.396;2024-03-02T02:00:47;8.50;99.90
23160;DHT22;11748;50.844;4.396;2024-03-02T02:03:15;8.60;99.90
23160;DHT22;11748;50.844;4.396;2024-03-02T02:05:42;8.50;99.90
23160;DHT22;11748;50.844;4.396;2024-03-02T02:08:09;8.40;99.90
23160;DHT22;11748;50.844;4.396;2024-03-02T02:10:34;8.40;99.90
23160;DHT22;11748;50.844;4.396;2024-03-02T02:13:01;8.50;99.90
23160;DHT22;11748;50.844;4.396;2024-03-02T02:15:31;8.50;99.90
23160;DHT22;11748;50.844;4.396;2024-03-02T02:17:58;8.50;99.90
23160;DHT22;11748;50.844;4.396;2024-03-02T02:20:25;8.60;99.90
23160;DHT22;11748;50.844;4.396;2024-03-02T02:22:58;8.60;99.90
23160;DHT22;11748;50.844;4.396;2024-03-02T02:25:25;8.60;99.90
23160;DHT22;11748;50.844;4.396;2024-03-02T02:27:54;8.60;99.90
23160;DHT22;11748;50.844;4.396;2024-03-02T02:30:25;8.60;99.90
23160;DHT22;11748;50.844;4.396;2024-03-02T02:32:51;8.60;99.90
23160;DHT22;11748;50.844;4.396;2024-03-02T02:35:18;8.60;99.90
23160;DHT22;11748;50.844;4.396;2024-03-02T02:37:45;8.60;99.90
23160;DHT22;11748;50.844;4.396;2024-03-02T02:40:12;8.60;99.90
23160;DHT22;11748;50.844;4.396;2024-03-02T02:42:38;8.60;99.90
23160;DHT22;11748;50.844;4.396;2024-03-02T02:45:06;8.60;99.90
23160;DHT22;11748;50.844;4.396;2024-03-02T02:47:32;8.60;99.90
23160;DHT22;11748;50.844;4.396;2024-03-02T02:50:03;8.50;99.90
23160;DHT22;11748;50.844;4.396;2024-03-02T02:52:34;8.50;99.90
23160;DHT22;11748;50.844;4.396;2024-03-02T02:55:04;8.40;99.90
23160;DHT22;11748;50.844;4.396;2024-03-02T02:57:31;8.20;99.90
23160;DHT22;11748;50.844;4.396;2024-03-02T03:00:04;8.20;99.90
23160;DHT22;11748;50.844;4.396;2024-03-02T03:02:34;8.10;99.90
23160;DHT22;11748;50.844;4.396;2024-03-02T03:05:01;8.10;99.90
23160;DHT22;11748;50.844;4.396;2024-03-02T03:07:27;8.00;99.90
23160;DHT22;11748;50.844;4.396;2024-03-02T03:09:53;8.00;99.90
23160;DHT22;11748;50.844;4.396;2024-03-02T03:12:21;8.00;99.90
23160;DHT22;11748;50.844;4.396;2024-03-02T03:14:49;7.90;99.90
23160;DHT22;11748;50.844;4.396;2024-03-02T03:17:14;7.90;99.90
23160;DHT22;11748;50.844;4.396;2024-03-02T03:19:41;7.90;99.90
23160;DHT22;11748;50.844;4.396;2024-03-02T03:22:08;7.80;99.90
23160;DHT22;11748;50.844;4.396;2024-03-02T03:24:34;7.70;99.90
23160;DHT22;11748;50.844;4.396;2024-03-02T03:27:00;7.80;99.90
23160;DHT22;11748;50.844;4.396;2024-03-02T03:29:26;7.80;99.90
23160;DHT22;11748;50.844;4.396;2024-03-02T03:31:51;7.80;99.90
23160;DHT22;11748;50.844;4.396;2024-03-02T03:34:20;7.90;99.90
23160;DHT22;11748;50.844;4.396;2024-03-02T03:36:46;7.90;99.90
23160;DHT22;11748;50.844;4.396;2024-03-02T03:39:12;8.00;99.90
23160;DHT22;11748;50.844;4.396;2024-03-02T03:41:40;8.10;99.90
23160;DHT22;11748;50.844;4.396;2024-03-02T03:44:05;8.20;99.90
23160;DHT22;11748;50.844;4.396;2024-03-02T03:46:31;8.20;99.90
23160;DHT22;11748;50.844;4.396;2024-03-02T03:48:56;8.30;99.90
23160;DHT22;11748;50.844;4.396;2024-03-02T03:51:22;8.20;99.90
23160;DHT22;11748;50.844;4.396;2024-03-02T03:53:50;8.00;99.90
23160;DHT22;11748;50.844;4.396;2024-03-02T03:56:16;8.10;99.90
23160;DHT22;11748;50.844;4.396;2024-03-02T03:58:43;8.20;99.90
23160;DHT22;11748;50.844;4.396;2024-03-02T04:01:08;8.20;99.90
23160;DHT22;11748;50.844;4.396;2024-03-02T04:03:34;8.10;99.90
23160;DHT22;11748;50.844;4.396;2024-03-02T04:06:00;8.20;99.90
23160;DHT22;11748;50.844;4.396;2024-03-02T04:08:26;8.10;99.90
23160;DHT22;11748;50.844;4.396;2024-03-02T04:10:51;8.20;99.90
23160;DHT22;11748;50.844;4.396;2024-03-02T04:13:17;8.20;99.90
23160;DHT22;11748;50.844;4.396;2024-03-02T04:15:43;8.20;99.90
23160;DHT22;11748;50.844;4.396;2024-03-02T04:18:08;8.20;99.90
23160;DHT22;11748;50.844;4.396;2024-03-02T04:20:34;8.10;99.90
23160;DHT22;11748;50.844;4.396;2024-03-02T04:23:00;8.10;99.90
23160;DHT22;11748;50.844;4.396;2024-03-02T04:25:25;8.00;99.90
23160;DHT22;11748;50.844;4.396;2024-03-02T04:27:51;7.90;99.90
23160;DHT22;11748;50.844;4.396;2024-03-02T04:30:16;7.80;99.90
23160;DHT22;11748;50.844;4.396;2024-03-02T04:32:45;7.80;99.90
23160;DHT22;11748;50.844;4.396;2024-03-02T04:35:14;7.80;99.90
23160;DHT22;11748;50.844;4.396;2024-03-02T04:37:40;7.80;99.90
23160;DHT22;11748;50.844;4.396;2024-03-02T04:40:06;7.80;99.90
23160;DHT22;11748;50.844;4.396;2024-03-02T04:42:36;7.80;99.90
23160;DHT22;11748;50.844;4.396;2024-03-02T04:45:01;7.70;99.90
23160;DHT22;11748;50.844;4.396;2024-03-02T04:47:27;7.70;99.90
23160;DHT22;11748;50.844;4.396;2024-03-02T04:49:54;7.70;99.90
23160;DHT22;11748;50.844;4.396;2024-03-02T04:52:19;7.70;99.90
23160;DHT22;11748;50.844;4.396;2024-03-02T04:54:45;7.60;99.90
23160;DHT22;11748;50.844;4.396;2024-03-02T04:57:29;7.70;99.90
23160;DHT22;11748;50.844;4.396;2024-03-02T04:59:55;7.70;99.90
23160;DHT22;11748;50.844;4.396;2024-03-02T05:02:20;7.60;99.90
23160;DHT22;11748;50.844;4.396;2024-03-02T05:04:46;7.70;99.90
23160;DHT22;11748;50.844;4.396;2024-03-02T05:07:13;7.70;99.90
23160;DHT22;11748;50.844;4.396;2024-03-02T05:09:39;7.70;99.90
23160;DHT22;11748;50.844;4.396;2024-03-02T05:12:05;7.70;99.90
23160;DHT22;11748;50.844;4.396;2024-03-02T05:14:57;7.70;99.90
23160;DHT22;11748;50.844;4.396;2024-03-02T05:17:22;7.60;99.90
23160;DHT22;11748;50.844;4.396;2024-03-02T05:19:50;7.60;99.90
23160;DHT22;11748;50.844;4.396;2024-03-02T05:22:19;7.60;99.90
23160;DHT22;11748;50.844;4.396;2024-03-02T05:24:45;7.60;99.90
23160;DHT22;11748;50.844;4.396;2024-03-02T05:27:10;7.70;99.90
23160;DHT22;11748;50.844;4.396;2024-03-02T05:29:36;7.60;99.90
23160;DHT22;11748;50.844;4.396;2024-03-02T05:32:03;7.50;99.90
23160;DHT22;11748;50.844;4.396;2024-03-02T05:34:29;7.60;99.90
23160;DHT22;11748;50.844;4.396;2024-03-02T05:36:56;7.50;99.90
23160;DHT22;11748;50.844;4.396;2024-03-02T05:39:23;7.50;99.90
23160;DHT22;11748;50.844;4.396;2024-03-02T05:41:49;7.40;99.90
23160;DHT22;11748;50.844;4.396;2024-03-02T05:44:14;7.50;99.90
23160;DHT22;11748;50.844;4.396;2024-03-02T05:46:42;7.40;99.90
23160;DHT22;11748;50.844;4.396;2024-03-02T05:49:10;7.40;99.90
23160;DHT22;11748;50.844;4.396;2024-03-02T05:51:36;7.40;99.90
23160;DHT22;11748;50.844;4.396;2024-03-02T05:54:03;7.40;99.90
23160;DHT22;11748;50.844;4.396;2024-03-02T05:56:28;7.40;99.90
23160;DHT22;11748;50.844;4.396;2024-03-02T05:58:57;7.40;99.90
23160;DHT22;11748;50.844;4.396;2024-03-02T06:01:34;7.30;99.90
23160;DHT22;11748;50.844;4.396;2024-03-02T06:04:00;7.30;99.90
23160;DHT22;11748;50.844;4.396;2024-03-02T06:06:25;7.40;99.90
23160;DHT22;11748;50.844;4.396;2024-03-02T06:08:52;7.30;99.90
23160;DHT22;11748;50.844;4.396;2024-03-02T06:11:22;7.30;99.90
23160;DHT22;11748;50.844;4.396;2024-03-02T06:13:48;7.30;99.90
23160;DHT22;11748;50.844;4.396;2024-03-02T06:16:16;7.30;99.90
23160;DHT22;11748;50.844;4.396;2024-03-02T06:18:44;7.20;99.90
23160;DHT22;11748;50.844;4.396;2024-03-02T06:21:11;7.20;99.90
23160;DHT22;11748;50.844;4.396;2024-03-02T06:23:38;7.20;99.90
23160;DHT22;11748;50.844;4.396;2024-03-02T06:26:04;7.20;99.90
23160;DHT22;11748;50.844;4.396;2024-03-02T06:28:29;7.20;99.90
23160;DHT22;11748;50.844;4.396;2024-03-02T06:30:55;7.20;99.90
23160;DHT22;11748;50.844;4.396;2024-03-02T06:33:20;7.20;99.90
23160;DHT22;11748;50.844;4.396;2024-03-02T06:35:48;7.20;99.90
23160;DHT22;11748;50.844;4.396;2024-03-02T06:38:14;7.10;99.90
23160;DHT22;11748;50.844;4.396;2024-03-02T06:40:40;7.10;99.90
23160;DHT22;11748;50.844;4.396;2024-03-02T06:43:06;7.10;99.90
23160;DHT22;11748;50.844;4.396;2024-03-02T06:45:35;7.20;99.90
23160;DHT22;11748;50.844;4.396;2024-03-02T06:48:01;7.20;99.90
23160;DHT22;11748;50.844;4.396;2024-03-02T06:50:27;7.20;99.90
23160;DHT22;11748;50.844;4.396;2024-03-02T06:52:53;7.30;99.90
23160;DHT22;11748;50.844;4.396;2024-03-02T06:55:22;7.20;99.90
23160;DHT22;11748;50.844;4.396;2024-03-02T06:57:50;7.20;99.90
23160;DHT22;11748;50.844;4.396;2024-03-02T07:00:16;7.20;99.90
23160;DHT22;11748;50.844;4.396;2024-03-02T07:02:44;7.20;99.90
23160;DHT22;11748;50.844;4.396;2024-03-02T07:05:10;7.40;99.90
23160;DHT22;11748;50.844;4.396;2024-03-02T07:07:41;7.40;99.90
23160;DHT22;11748;50.844;4.396;2024-03-02T07:10:11;7.30;99.90
23160;DHT22;11748;50.844;4.396;2024-03-02T07:12:37;7.30;99.90
23160;DHT22;11748;50.844;4.396;2024-03-02T07:15:03;7.30;99.90
23160;DHT22;11748;50.844;4.396;2024-03-02T07:17:30;7.30;99.90
23160;DHT22;11748;50.844;4.396;2024-03-02T07:19:57;7.30;99.90
23160;DHT22;11748;50.844;4.396;2024-03-02T07:22:24;7.40;99.90
23160;DHT22;11748;50.844;4.396;2024-03-02T07:24:51;7.40;99.90
23160;DHT22;11748;50.844;4.396;2024-03-02T07:27:17;7.40;99.90
23160;DHT22;11748;50.844;4.396;2024-03-02T07:29:43;7.40;99.90
23160;DHT22;11748;50.844;4.396;2024-03-02T07:32:10;7.40;99.90
23160;DHT22;11748;50.844;4.396;2024-03-02T07:34:37;7.40;99.90
23160;DHT22;11748;50.844;4.396;2024-03-02T07:37:03;7.40;99.90
23160;DHT22;11748;50.844;4.396;2024-03-02T07:39:29;7.50;99.90
23160;DHT22;11748;50.844;4.396;2024-03-02T07:41:55;7.50;99.90
23160;DHT22;11748;50.844;4.396;2024-03-02T07:44:21;7.50;99.90
23160;DHT22;11748;50.844;4.396;2024-03-02T07:46:48;7.60;99.90
23160;DHT22;11748;50.844;4.396;2024-03-02T07:49:16;7.60;99.90
23160;DHT22;11748;50.844;4.396;2024-03-02T07:51:43;7.50;99.90
23160;DHT22;11748;50.844;4.396;2024-03-02T07:54:09;7.60;99.90
23160;DHT22;11748;50.844;4.396;2024-03-02T07:56:35;7.70;99.90
23160;DHT22;11748;50.844;4.396;2024-03-02T07:59:01;7.80;99.90
23160;DHT22;11748;50.844;4.396;2024-03-02T08:01:31;7.70;99.90
23160;DHT22;11748;50.844;4.396;2024-03-02T08:03:59;7.80;99.90
23160;DHT22;11748;50.844;4.396;2024-03-02T08:06:26;8.00;99.90
23160;DHT22;11748;50.844;4.396;2024-03-02T08:08:54;8.00;99.90
23160;DHT22;11748;50.844;4.396;2024-03-02T08:11:21;8.00;99.90
23160;DHT22;11748;50.844;4.396;2024-03-02T08:13:47;8.10;99.90
23160;DHT22;11748;50.844;4.396;2024-03-02T08:16:15;8.20;99.90
23160;DHT22;11748;50.844;4.396;2024-03-02T08:18:41;8.20;99.90
23160;DHT22;11748;50.844;4.396;2024-03-02T08:21:08;8.20;99.90
23160;DHT22;11748;50.844;4.396;2024-03-02T08:23:35;8.10;99.90
23160;DHT22;11748;50.844;4.396;2024-03-02T08:26:00;8.20;99.90
23160;DHT22;11748;50.844;4.396;2024-03-02T08:28:26;8.40;99.90
23160;DHT22;11748;50.844;4.396;2024-03-02T08:30:52;8.40;99.90
23160;DHT22;11748;50.844;4.396;2024-03-02T08:33:19;8.40;99.90
23160;DHT22;11748;50.844;4.396;2024-03-02T08:35:44;8.40;99.90
23160;DHT22;11748;50.844;4.396;2024-03-02T08:38:10;8.50;99.90
23160;DHT22;11748;50.844;4.396;2024-03-02T08:40:35;8.70;99.90
23160;DHT22;11748;50.844;4.396;2024-03-02T08:43:01;8.80;99.90
23160;DHT22;11748;50.844;4.396;2024-03-02T08:45:27;8.90;99.90
23160;DHT22;11748;50.844;4.396;2024-03-02T08:47:52;9.00;99.90
23160;DHT22;11748;50.844;4.396;2024-03-02T08:50:18;8.90;99.90
23160;DHT22;11748;50.844;4.396;2024-03-02T08:52:45;8.90;99.90
23160;DHT22;11748;50.844;4.396;2024-03-02T08:55:10;9.10;99.90
23160;DHT22;11748;50.844;4.396;2024-03-02T08:57:37;9.10;99.90
23160;DHT22;11748;50.844;4.396;2024-03-02T09:00:04;9.20;99.90
23160;DHT22;11748;50.844;4.396;2024-03-02T09:02:30;9.30;99.90
23160;DHT22;11748;50.844;4.396;2024-03-02T09:04:57;9.40;99.90
23160;DHT22;11748;50.844;4.396;2024-03-02T09:07:23;9.60;99.90
23160;DHT22;11748;50.844;4.396;2024-03-02T09:09:49;9.70;99.90
23160;DHT22;11748;50.844;4.396;2024-03-02T09:12:15;9.70;99.90
23160;DHT22;11748;50.844;4.396;2024-03-02T09:14:41;9.70;99.90
23160;DHT22;11748;50.844;4.396;2024-03-02T09:17:09;9.80;99.90
23160;DHT22;11748;50.844;4.396;2024-03-02T09:19:36;9.90;99.90
23160;DHT22;11748;50.844;4.396;2024-03-02T09:22:02;9.90;99.90
23160;DHT22;11748;50.844;4.396;2024-03-02T09:24:34;9.90;99.90
23160;DHT22;11748;50.844;4.396;2024-03-02T09:27:00;9.80;99.90
23160;DHT22;11748;50.844;4.396;2024-03-02T09:29:26;9.90;99.90
23160;DHT22;11748;50.844;4.396;2024-03-02T09:31:52;9.90;99.90
23160;DHT22;11748;50.844;4.396;2024-03-02T09:34:17;10.00;99.90
23160;DHT22;11748;50.844;4.396;2024-03-02T09:36:43;10.20;99.90
23160;DHT22;11748;50.844;4.396;2024-03-02T09:39:09;10.30;99.90
23160;DHT22;11748;50.844;4.396;2024-03-02T09:41:36;10.20;99.90
23160;DHT22;11748;50.844;4.396;2024-03-02T09:44:03;10.30;99.90
23160;DHT22;11748;50.844;4.396;2024-03-02T09:46:28;10.40;99.90
23160;DHT22;11748;50.844;4.396;2024-03-02T09:48:54;10.50;99.90
23160;DHT22;11748;50.844;4.396;2024-03-02T09:51:23;10.50;99.90
23160;DHT22;11748;50.844;4.396;2024-03-02T09:53:49;10.50;99.90
23160;DHT22;11748;50.844;4.396;2024-03-02T09:56:15;10.50;99.90
23160;DHT22;11748;50.844;4.396;2024-03-02T09:58:44;10.60;99.90
23160;DHT22;11748;50.844;4.396;2024-03-02T10:01:11;10.70;99.90
23160;DHT22;11748;50.844;4.396;2024-03-02T10:03:36;10.70;99.90
23160;DHT22;11748;50.844;4.396;2024-03-02T10:06:30;10.70;99.90
23160;DHT22;11748;50.844;4.396;2024-03-02T10:08:56;10.90;99.90
23160;DHT22;11748;50.844;4.396;2024-03-02T10:11:32;11.10;99.90
23160;DHT22;11748;50.844;4.396;2024-03-02T10:14:11;11.20;99.90
23160;DHT22;11748;50.844;4.396;2024-03-02T10:16:41;11.40;99.90
23160;DHT22;11748;50.844;4.396;2024-03-02T10:19:21;11.50;99.90
23160;DHT22;11748;50.844;4.396;2024-03-02T10:21:48;11.70;99.90
23160;DHT22;11748;50.844;4.396;2024-03-02T10:24:15;11.90;99.90
23160;DHT22;11748;50.844;4.396;2024-03-02T10:26:41;12.10;99.90
23160;DHT22;11748;50.844;4.396;2024-03-02T10:29:11;11.90;99.90
23160;DHT22;11748;50.844;4.396;2024-03-02T10:31:46;11.90;99.90
23160;DHT22;11748;50.844;4.396;2024-03-02T10:34:12;12.00;99.90
23160;DHT22;11748;50.844;4.396;2024-03-02T10:36:43;12.10;99.90
23160;DHT22;11748;50.844;4.396;2024-03-02T10:39:13;12.10;99.90
23160;DHT22;11748;50.844;4.396;2024-03-02T10:41:38;12.10;99.90
23160;DHT22;11748;50.844;4.396;2024-03-02T10:44:07;12.30;99.90
23160;DHT22;11748;50.844;4.396;2024-03-02T10:46:35;12.30;99.90
23160;DHT22;11748;50.844;4.396;2024-03-02T10:49:03;12.40;99.90
23160;DHT22;11748;50.844;4.396;2024-03-02T10:51:30;12.40;99.90
23160;DHT22;11748;50.844;4.396;2024-03-02T10:54:02;12.40;99.90
23160;DHT22;11748;50.844;4.396;2024-03-02T10:56:30;12.00;99.90
23160;DHT22;11748;50.844;4.396;2024-03-02T10:59:02;12.10;99.90
23160;DHT22;11748;50.844;4.396;2024-03-02T11:01:30;12.00;99.90
23160;DHT22;11748;50.844;4.396;2024-03-02T11:04:02;12.40;99.90
23160;DHT22;11748;50.844;4.396;2024-03-02T11:06:30;12.60;99.90
23160;DHT22;11748;50.844;4.396;2024-03-02T11:09:00;12.80;99.90
23160;DHT22;11748;50.844;4.396;2024-03-02T11:11:32;12.90;99.90
23160;DHT22;11748;50.844;4.396;2024-03-02T11:14:01;13.00;99.90
23160;DHT22;11748;50.844;4.396;2024-03-02T11:16:36;12.90;99.90
23160;DHT22;11748;50.844;4.396;2024-03-02T11:19:06;12.90;99.90
23160;DHT22;11748;50.844;4.396;2024-03-02T11:21:34;13.20;99.90
23160;DHT22;11748;50.844;4.396;2024-03-02T11:26:49;13.20;99.90
23160;DHT22;11748;50.844;4.396;2024-03-02T11:32:02;13.30;99.90
23160;DHT22;11748;50.844;4.396;2024-03-02T11:34:30;13.40;99.90
23160;DHT22;11748;50.844;4.396;2024-03-02T11:36:56;13.40;99.90
23160;DHT22;11748;50.844;4.396;2024-03-02T11:39:21;13.50;99.90
23160;DHT22;11748;50.844;4.396;2024-03-02T11:41:47;13.80;99.90
23160;DHT22;11748;50.844;4.396;2024-03-02T11:44:14;13.70;99.90
23160;DHT22;11748;50.844;4.396;2024-03-02T11:46:41;13.40;99.90
23160;DHT22;11748;50.844;4.396;2024-03-02T11:49:07;13.70;99.90
23160;DHT22;11748;50.844;4.396;2024-03-02T11:51:34;13.80;99.90
23160;DHT22;11748;50.844;4.396;2024-03-02T11:54:01;13.70;99.90
23160;DHT22;11748;50.844;4.396;2024-03-02T11:56:28;13.90;99.90
23160;DHT22;11748;50.844;4.396;2024-03-02T11:58:56;14.00;99.90
23160;DHT22;11748;50.844;4.396;2024-03-02T12:01:25;14.30;99.90
23160;DHT22;11748;50.844;4.396;2024-03-02T12:03:51;14.30;99.90
23160;DHT22;11748;50.844;4.396;2024-03-02T12:06:18;14.20;99.90
23160;DHT22;11748;50.844;4.396;2024-03-02T12:08:46;13.90;99.90
23160;DHT22;11748;50.844;4.396;2024-03-02T12:11:14;13.90;99.90
23160;DHT22;11748;50.844;4.396;2024-03-02T12:13:41;14.00;99.90
23160;DHT22;11748;50.844;4.396;2024-03-02T12:16:07;13.90;99.90
23160;DHT22;11748;50.844;4.396;2024-03-02T12:18:33;14.00;99.90
23160;DHT22;11748;50.844;4.396;2024-03-02T12:20:59;14.20;99.90
23160;DHT22;11748;50.844;4.396;2024-03-02T12:23:25;14.40;99.90
23160;DHT22;11748;50.844;4.396;2024-03-02T12:25:51;14.60;99.90
23160;DHT22;11748;50.844;4.396;2024-03-02T12:28:16;14.80;99.90
23160;DHT22;11748;50.844;4.396;2024-03-02T12:30:43;14.90;99.90
23160;DHT22;11748;50.844;4.396;2024-03-02T12:33:11;15.00;99.90
23160;DHT22;11748;50.844;4.396;2024-03-02T12:35:36;14.90;99.90
23160;DHT22;11748;50.844;4.396;2024-03-02T12:38:02;14.70;99.90
23160;DHT22;11748;50.844;4.396;2024-03-02T12:40:28;14.40;99.90
23160;DHT22;11748;50.844;4.396;2024-03-02T12:42:56;14.50;99.90
23160;DHT22;11748;50.844;4.396;2024-03-02T12:45:21;14.50;99.90
23160;DHT22;11748;50.844;4.396;2024-03-02T12:47:50;14.40;99.90
23160;DHT22;11748;50.844;4.396;2024-03-02T12:50:21;14.30;99.90
23160;DHT22;11748;50.844;4.396;2024-03-02T12:52:54;14.10;99.90
23160;DHT22;11748;50.844;4.396;2024-03-02T12:55:22;14.10;99.90
23160;DHT22;11748;50.844;4.396;2024-03-02T12:57:50;14.20;99.90
23160;DHT22;11748;50.844;4.396;2024-03-02T13:00:18;14.40;99.90
23160;DHT22;11748;50.844;4.396;2024-03-02T13:02:46;14.60;99.90
23160;DHT22;11748;50.844;4.396;2024-03-02T13:05:11;14.80;99.90
23160;DHT22;11748;50.844;4.396;2024-03-02T13:07:38;14.80;99.90
23160;DHT22;11748;50.844;4.396;2024-03-02T13:10:04;14.80;99.90
23160;DHT22;11748;50.844;4.396;2024-03-02T13:12:31;14.70;99.90
23160;DHT22;11748;50.844;4.396;2024-03-02T13:14:58;14.70;99.90
23160;DHT22;11748;50.844;4.396;2024-03-02T13:17:28;14.40;99.90
23160;DHT22;11748;50.844;4.396;2024-03-02T13:19:57;14.30;99.90
23160;DHT22;11748;50.844;4.396;2024-03-02T13:22:24;14.10;99.90
23160;DHT22;11748;50.844;4.396;2024-03-02T13:24:52;14.20;99.90
23160;DHT22;11748;50.844;4.396;2024-03-02T13:27:18;14.20;99.90
23160;DHT22;11748;50.844;4.396;2024-03-02T13:29:49;14.30;99.90
23160;DHT22;11748;50.844;4.396;2024-03-02T13:32:16;14.10;99.90
23160;DHT22;11748;50.844;4.396;2024-03-02T13:34:42;14.10;99.90
23160;DHT22;11748;50.844;4.396;2024-03-02T13:37:08;14.10;99.90
23160;DHT22;11748;50.844;4.396;2024-03-02T13:39:34;14.10;99.90
23160;DHT22;11748;50.844;4.396;2024-03-02T13:42:09;14.10;99.90
23160;DHT22;11748;50.844;4.396;2024-03-02T13:44:35;14.30;99.90
23160;DHT22;11748;50.844;4.396;2024-03-02T13:47:02;14.60;99.90
23160;DHT22;11748;50.844;4.396;2024-03-02T13:49:28;14.60;99.90
23160;DHT22;11748;50.844;4.396;2024-03-02T13:52:05;14.70;99.90
23160;DHT22;11748;50.844;4.396;2024-03-02T13:54:45;14.60;99.90
23160;DHT22;11748;50.844;4.396;2024-03-02T13:57:11;14.70;99.90
23160;DHT22;11748;50.844;4.396;2024-03-02T13:59:38;14.60;99.90
23160;DHT22;11748;50.844;4.396;2024-03-02T14:02:08;14.70;99.90
23160;DHT22;11748;50.844;4.396;2024-03-02T14:04:35;14.80;99.90
23160;DHT22;11748;50.844;4.396;2024-03-02T14:07:02;14.70;99.90
23160;DHT22;11748;50.844;4.396;2024-03-02T14:09:29;14.70;99.90
23160;DHT22;11748;50.844;4.396;2024-03-02T14:11:56;14.70;99.90
23160;DHT22;11748;50.844;4.396;2024-03-02T14:14:24;14.70;99.90
23160;DHT22;11748;50.844;4.396;2024-03-02T14:16:50;14.60;99.90
23160;DHT22;11748;50.844;4.396;2024-03-02T14:19:16;14.60;99.90
23160;DHT22;11748;50.844;4.396;2024-03-02T14:21:42;14.50;99.90
23160;DHT22;11748;50.844;4.396;2024-03-02T14:24:09;14.30;99.90
23160;DHT22;11748;50.844;4.396;2024-03-02T14:26:36;14.20;99.90
23160;DHT22;11748;50.844;4.396;2024-03-02T14:29:06;14.30;99.90
23160;DHT22;11748;50.844;4.396;2024-03-02T14:31:38;14.00;99.90
23160;DHT22;11748;50.844;4.396;2024-03-02T14:34:04;13.70;99.90
23160;DHT22;11748;50.844;4.396;2024-03-02T14:36:30;13.60;99.90
23160;DHT22;11748;50.844;4.396;2024-03-02T14:38:59;13.40;99.90
23160;DHT22;11748;50.844;4.396;2024-03-02T14:41:28;13.50;99.90
23160;DHT22;11748;50.844;4.396;2024-03-02T14:43:56;13.50;99.90
23160;DHT22;11748;50.844;4.396;2024-03-02T14:46:22;13.60;99.90
23160;DHT22;11748;50.844;4.396;2024-03-02T14:48:48;13.80;99.90
23160;DHT22;11748;50.844;4.396;2024-03-02T14:51:14;13.90;99.90
23160;DHT22;11748;50.844;4.396;2024-03-02T14:53:41;14.10;99.90
23160;DHT22;11748;50.844;4.396;2024-03-02T14:56:07;14.20;99.90
23160;DHT22;11748;50.844;4.396;2024-03-02T14:58:32;14.20;99.90
23160;DHT22;11748;50.844;4.396;2024-03-02T15:01:00;14.20;99.90
23160;DHT22;11748;50.844;4.396;2024-03-02T15:03:26;14.20;99.90
23160;DHT22;11748;50.844;4.396;2024-03-02T15:05:51;14.20;99.90
23160;DHT22;11748;50.844;4.396;2024-03-02T15:08:17;14.20;99.90
23160;DHT22;11748;50.844;4.396;2024-03-02T15:10:43;14.10;99.90
23160;DHT22;11748;50.844;4.396;2024-03-02T15:13:09;14.00;99.90
23160;DHT22;11748;50.844;4.396;2024-03-02T15:15:35;13.90;99.90
23160;DHT22;11748;50.844;4.396;2024-03-02T15:18:01;13.80;99.90
23160;DHT22;11748;50.844;4.396;2024-03-02T15:20:27;13.60;99.90
23160;DHT22;11748;50.844;4.396;2024-03-02T15:22:52;13.60;99.90
23160;DHT22;11748;50.844;4.396;2024-03-02T15:25:20;13.60;99.90
23160;DHT22;11748;50.844;4.396;2024-03-02T15:27:46;13.70;99.90
23160;DHT22;11748;50.844;4.396;2024-03-02T15:30:11;13.70;99.90
23160;DHT22;11748;50.844;4.396;2024-03-02T15:32:37;13.60;99.90
23160;DHT22;11748;50.844;4.396;2024-03-02T15:35:05;13.70;99.90
23160;DHT22;11748;50.844;4.396;2024-03-02T15:37:31;13.70;99.90
23160;DHT22;11748;50.844;4.396;2024-03-02T15:39:57;13.70;99.90
23160;DHT22;11748;50.844;4.396;2024-03-02T15:42:24;13.80;99.90
23160;DHT22;11748;50.844;4.396;2024-03-02T15:44:49;13.80;99.90
23160;DHT22;11748;50.844;4.396;2024-03-02T15:47:15;13.80;99.90